Harman, West Virginia
Current Conditions -  °F | °C
As of 10:51 PM on Saturday 25 Oct 2014 (Local Time) from KEKN Reporting Station
Few Clouds Few Clouds  
Wind Chill: 59°   Ceiling: Unl
Heat Index: 59°   Visibility: 10mi
Dew Point: 53°   Wind: 14mph
Humidity: 81%   Direction: 260°W
Pressure: 29.86"   Gusts: 32mph
Location:  38.92°N, 79.53°W
Report Text: KEKN 260251Z AUTO 26012G28KT 10SM FEW022 15/12 A2986 RMK AO2 PK WND 26028/0242 SLP114 T01500117 58003 TSNO
Loading
Personal Weather Stations






























Interactive Weather Map
Tropical Storm Tracking
New forecast layout! Learn more

10-Day Weather Forecast

Advertisements
Track Severe Weather on mobile